createdAt,value
2022-08-12T00:00:14.444Z,8.02
2022-08-12T00:02:41.129Z,7.53
2022-08-12T00:05:08.363Z,7.00
2022-08-12T00:07:36.843Z,6.63
2022-08-12T00:10:03.719Z,7.43
2022-08-12T00:12:30.129Z,6.13
2022-08-12T00:14:56.451Z,7.07
2022-08-12T00:17:23.544Z,8.63
2022-08-12T00:19:50.431Z,6.30
2022-08-12T00:22:17.408Z,7.38
2022-08-12T00:24:45.260Z,6.50
2022-08-12T00:27:11.588Z,9.70
2022-08-12T00:29:38.208Z,6.60
2022-08-12T00:32:04.634Z,6.47
2022-08-12T00:34:34.223Z,7.50
2022-08-12T00:37:13.270Z,7.38
2022-08-12T00:39:41.901Z,6.45
2022-08-12T00:42:09.920Z,6.25
2022-08-12T00:44:36.587Z,6.55
2022-08-12T00:47:05.095Z,7.22
2022-08-12T00:49:31.549Z,7.10
2022-08-12T00:51:59.141Z,6.53
2022-08-12T00:54:25.554Z,6.68
2022-08-12T00:56:53.838Z,7.30
2022-08-12T00:59:21.525Z,6.63
2022-08-12T01:02:11.508Z,7.70
2022-08-12T01:04:35.537Z,7.40
2022-08-12T01:07:03.497Z,8.15
2022-08-12T01:09:29.990Z,8.30
2022-08-12T01:11:56.352Z,7.00
2022-08-12T01:14:24.249Z,7.80
2022-08-12T01:16:51.246Z,8.57
2022-08-12T01:19:18.037Z,6.68
2022-08-12T01:22:02.910Z,8.23
2022-08-12T01:24:53.170Z,8.82
2022-08-12T01:27:21.153Z,7.70
2022-08-12T01:29:48.874Z,8.02
2022-08-12T01:32:15.833Z,6.05
2022-08-12T01:34:45.899Z,7.05
2022-08-12T01:37:13.305Z,9.02
2022-08-12T01:40:33.648Z,17.50
2022-08-12T01:42:31.890Z,8.30
2022-08-12T01:44:58.547Z,13.90
2022-08-12T01:47:31.783Z,8.88
2022-08-12T01:50:05.943Z,9.60
2022-08-12T01:52:37.003Z,7.32
2022-08-12T01:55:04.150Z,7.35
2022-08-12T01:57:59.281Z,6.63
2022-08-12T02:00:22.506Z,15.82
2022-08-12T02:03:09.011Z,7.25
2022-08-12T02:05:41.810Z,9.27
2022-08-12T02:08:15.593Z,7.32
2022-08-12T02:10:50.497Z,8.68
2022-08-12T02:13:48.095Z,6.68
2022-08-12T02:16:13.753Z,6.57
2022-08-12T02:18:43.658Z,12.52
2022-08-12T02:21:16.835Z,8.65
2022-08-12T02:23:43.230Z,7.10
2022-08-12T02:26:11.999Z,8.02
2022-08-12T02:28:39.718Z,6.82
2022-08-12T02:31:06.993Z,6.47
2022-08-12T02:33:33.938Z,9.02
2022-08-12T02:36:01.163Z,23.73
2022-08-12T02:38:27.766Z,10.32
2022-08-12T02:40:55.658Z,8.18
2022-08-12T02:43:26.084Z,11.95
2022-08-12T02:45:56.495Z,7.85
2022-08-12T02:48:25.582Z,11.88
2022-08-12T02:50:52.678Z,11.63
2022-08-12T02:53:19.730Z,8.77
2022-08-12T02:55:46.046Z,8.45
2022-08-12T02:58:14.669Z,8.75
2022-08-12T03:00:41.623Z,7.50
2022-08-12T03:03:10.370Z,8.23
2022-08-12T03:05:44.232Z,7.20
2022-08-12T03:08:12.530Z,12.32
2022-08-12T03:10:59.855Z,5.57
2022-08-12T03:13:28.438Z,12.65
2022-08-12T03:15:55.127Z,6.93
2022-08-12T03:18:28.732Z,8.25
2022-08-12T03:20:55.799Z,6.88
2022-08-12T03:23:30.233Z,7.03
2022-08-12T03:25:58.086Z,7.15
2022-08-12T03:28:24.462Z,6.68
2022-08-12T03:30:54.849Z,7.50
2022-08-12T03:33:24.731Z,6.78
2022-08-12T03:35:53.791Z,6.25
2022-08-12T03:40:52.979Z,6.70
2022-08-12T03:43:21.181Z,8.98
2022-08-12T03:45:52.291Z,7.10
2022-08-12T03:48:19.608Z,7.63
2022-08-12T03:50:47.739Z,13.13
2022-08-12T03:53:17.083Z,7.70
2022-08-12T03:55:43.505Z,5.95
2022-08-12T03:58:10.120Z,8.23
2022-08-12T04:00:37.100Z,7.35
2022-08-12T04:03:03.924Z,8.20
2022-08-12T04:05:56.137Z,7.00
2022-08-12T04:08:22.579Z,9.10
2022-08-12T04:10:49.007Z,12.43
2022-08-12T04:13:20.180Z,24.92
2022-08-12T04:15:46.679Z,10.40
2022-08-12T04:18:13.314Z,18.05
2022-08-12T04:20:40.132Z,9.15
2022-08-12T04:23:06.680Z,11.77
2022-08-12T04:25:36.116Z,12.50
2022-08-12T04:28:13.355Z,10.68
2022-08-12T04:30:40.195Z,9.98
2022-08-12T04:33:07.748Z,6.82
2022-08-12T04:35:34.112Z,8.00
2022-08-12T04:38:01.217Z,13.95
2022-08-12T04:40:28.958Z,13.40
2022-08-12T04:42:56.915Z,11.23
2022-08-12T04:45:23.308Z,7.60
2022-08-12T04:47:49.724Z,8.32
2022-08-12T04:50:33.930Z,11.55
2022-08-12T04:53:02.339Z,8.18
2022-08-12T04:55:28.973Z,10.38
2022-08-12T04:57:56.705Z,9.23
2022-08-12T05:00:23.090Z,8.13
2022-08-12T05:02:49.581Z,10.48
2022-08-12T05:05:17.107Z,7.93
2022-08-12T05:07:54.369Z,8.90
2022-08-12T05:10:33.939Z,10.20
2022-08-12T05:13:05.756Z,11.80
2022-08-12T05:15:32.220Z,12.25
2022-08-12T05:18:02.266Z,12.45
2022-08-12T05:20:53.536Z,9.65
2022-08-12T05:23:25.550Z,13.48
2022-08-12T05:25:55.084Z,10.73
2022-08-12T05:28:23.362Z,9.95
2022-08-12T05:30:50.171Z,8.77
2022-08-12T05:33:16.503Z,9.20
2022-08-12T05:35:43.573Z,9.57
2022-08-12T05:38:10.693Z,11.88
2022-08-12T05:40:37.089Z,9.52
2022-08-12T05:43:03.463Z,9.48
2022-08-12T05:45:31.174Z,10.15
2022-08-12T05:47:57.514Z,13.10
2022-08-12T05:50:23.881Z,8.00
2022-08-12T05:52:50.245Z,10.30
2022-08-12T05:55:20.238Z,8.43
2022-08-12T05:57:51.997Z,6.68
2022-08-12T06:00:18.347Z,7.57
2022-08-12T06:02:46.078Z,7.45
2022-08-12T06:05:12.498Z,9.57
2022-08-12T06:07:59.630Z,7.47
2022-08-12T06:10:31.769Z,11.18
2022-08-12T06:12:59.311Z,9.57
2022-08-12T06:15:25.644Z,7.00
2022-08-12T06:17:53.383Z,8.75
2022-08-12T06:20:26.771Z,8.75
2022-08-12T06:22:56.154Z,6.38
2022-08-12T06:25:22.502Z,7.07
2022-08-12T06:28:06.177Z,5.55
2022-08-12T06:30:38.016Z,6.55
2022-08-12T06:33:24.913Z,7.30
2022-08-12T06:35:57.600Z,13.97
2022-08-12T06:38:26.106Z,9.68
2022-08-12T06:40:53.658Z,9.95
2022-08-12T06:43:19.983Z,5.95
2022-08-12T06:45:47.093Z,5.90
2022-08-12T06:48:14.906Z,7.45
2022-08-12T06:50:41.648Z,6.28
2022-08-12T06:53:07.935Z,9.75
2022-08-12T06:55:34.739Z,14.45
2022-08-12T06:58:07.569Z,12.27
2022-08-12T07:00:36.803Z,5.75
2022-08-12T07:03:16.276Z,9.98
2022-08-12T07:05:51.167Z,9.25
2022-08-12T07:08:17.639Z,4.13
2022-08-12T07:10:45.466Z,7.00
2022-08-12T07:13:11.843Z,11.95
2022-08-12T07:15:39.274Z,7.65
2022-08-12T07:18:10.359Z,7.80
2022-08-12T07:20:52.123Z,8.55
2022-08-12T07:23:20.624Z,6.55
2022-08-12T07:25:47.048Z,5.30
2022-08-12T07:28:16.938Z,7.43
2022-08-12T07:30:44.393Z,15.55
2022-08-12T07:33:11.477Z,7.63
2022-08-12T07:35:38.829Z,5.25
2022-08-12T07:38:17.824Z,8.50
2022-08-12T07:40:58.800Z,13.98
2022-08-12T07:43:25.637Z,8.48
2022-08-12T07:45:52.484Z,16.95
2022-08-12T07:48:18.826Z,7.10
2022-08-12T07:50:45.153Z,7.10
2022-08-12T07:53:11.550Z,6.75
2022-08-12T07:55:37.904Z,13.75
2022-08-12T07:58:05.746Z,12.13
2022-08-12T08:00:34.391Z,26.50
2022-08-12T08:03:00.746Z,7.40
2022-08-12T08:05:28.177Z,15.70
2022-08-12T08:07:54.799Z,5.45
2022-08-12T08:10:21.236Z,4.57
2022-08-12T08:12:47.914Z,5.70
2022-08-12T08:15:16.115Z,5.47
2022-08-12T08:17:52.266Z,12.88
2022-08-12T08:20:18.650Z,5.68
2022-08-12T08:22:54.562Z,5.07
2022-08-12T08:25:36.386Z,6.32
2022-08-12T08:28:20.870Z,11.77
2022-08-12T08:30:49.601Z,5.32
2022-08-12T08:34:01.417Z,6.13
2022-08-12T08:36:04.354Z,5.93
2022-08-12T08:38:32.110Z,7.78
2022-08-12T08:41:01.364Z,3.63
2022-08-12T08:43:43.260Z,8.60
2022-08-12T08:46:12.629Z,4.00
2022-08-12T08:48:38.999Z,7.32
2022-08-12T08:51:05.489Z,4.90
2022-08-12T08:53:31.858Z,6.68
2022-08-12T08:56:05.876Z,5.22
2022-08-12T08:58:32.383Z,4.35
2022-08-12T09:00:58.677Z,7.50
2022-08-12T09:05:08.389Z,7.28
2022-08-12T09:06:14.506Z,4.73
2022-08-12T09:08:44.018Z,4.70
2022-08-12T09:11:12.690Z,7.55
2022-08-12T09:14:11.022Z,10.25
2022-08-12T09:16:42.827Z,4.45
2022-08-12T09:19:27.161Z,4.35
2022-08-12T09:21:55.405Z,13.90
2022-08-12T09:24:22.108Z,4.45
2022-08-12T09:26:48.915Z,4.40
2022-08-12T09:29:16.077Z,7.57
2022-08-12T09:32:04.212Z,4.13
2022-08-12T09:34:32.920Z,3.85
2022-08-12T09:37:02.426Z,17.67
2022-08-12T09:40:05.969Z,15.00
2022-08-12T09:42:35.813Z,6.53
2022-08-12T09:45:19.053Z,7.33
2022-08-12T09:47:56.991Z,3.92
2022-08-12T09:50:28.029Z,5.30
2022-08-12T09:53:04.762Z,3.47
2022-08-12T09:56:05.265Z,4.47
2022-08-12T09:58:57.395Z,10.90
2022-08-12T10:01:06.432Z,3.45
2022-08-12T10:04:02.905Z,4.43
2022-08-12T10:06:32.330Z,5.20
2022-08-12T10:09:03.206Z,3.17
2022-08-12T10:11:41.379Z,9.80
2022-08-12T10:14:16.482Z,6.88
2022-08-12T10:16:42.912Z,3.88
2022-08-12T10:19:16.978Z,5.35
2022-08-12T10:21:45.505Z,6.32
2022-08-12T10:24:13.479Z,3.80
2022-08-12T10:26:40.973Z,2.78
2022-08-12T10:30:01.824Z,6.82
2022-08-12T10:32:20.598Z,4.23
2022-08-12T10:34:41.501Z,3.10
2022-08-12T10:38:32.327Z,3.17
2022-08-12T10:40:11.294Z,3.28
2022-08-12T10:42:40.862Z,2.35
2022-08-12T10:45:14.374Z,2.97
2022-08-12T10:48:19.108Z,3.20
2022-08-12T10:51:00.975Z,4.78
2022-08-12T10:53:19.749Z,3.03
2022-08-12T10:55:47.379Z,4.28
2022-08-12T10:58:28.403Z,5.00
2022-08-12T11:01:49.166Z,2.90
2022-08-12T11:04:28.006Z,4.88
2022-08-12T11:07:06.018Z,4.47
2022-08-12T11:09:56.554Z,2.75
2022-08-12T11:12:55.865Z,3.17
2022-08-12T11:15:00.902Z,2.95
2022-08-12T11:17:53.275Z,3.08
2022-08-12T11:20:21.150Z,6.82
2022-08-12T11:22:58.639Z,2.72
2022-08-12T11:25:53.752Z,4.30
2022-08-12T11:28:13.933Z,3.38
2022-08-12T11:30:41.361Z,1.90
2022-08-12T11:33:11.742Z,2.85
2022-08-12T11:35:38.894Z,3.30
2022-08-12T11:38:09.793Z,4.18
2022-08-12T11:40:37.673Z,3.88
2022-08-12T11:43:19.660Z,3.35
2022-08-12T11:45:47.392Z,5.23
2022-08-12T11:48:15.204Z,4.93
2022-08-12T11:50:42.587Z,4.10
2022-08-12T11:53:57.566Z,3.85
2022-08-12T11:55:56.705Z,3.47
2022-08-12T12:02:01.093Z,2.47
2022-08-12T12:03:56.410Z,3.17
2022-08-12T12:06:24.773Z,3.20
2022-08-12T12:08:53.777Z,3.55
2022-08-12T12:11:22.202Z,2.15
2022-08-12T12:14:08.368Z,3.55
2022-08-12T12:16:38.345Z,3.50
2022-08-12T12:19:06.573Z,2.97
2022-08-12T12:21:47.048Z,5.18
2022-08-12T12:24:20.806Z,2.83
2022-08-12T12:27:00.837Z,2.50
2022-08-12T12:30:19.806Z,2.72
2022-08-12T12:32:14.953Z,4.30
2022-08-12T12:35:44.221Z,2.83
2022-08-12T12:38:04.146Z,3.50
2022-08-12T12:40:14.847Z,2.45
2022-08-12T12:42:55.500Z,4.05
2022-08-12T12:45:26.326Z,2.30
2022-08-12T12:47:55.015Z,3.72
2022-08-12T12:50:35.560Z,3.72
2022-08-12T12:53:04.387Z,4.93
2022-08-12T12:55:35.448Z,7.20
2022-08-12T12:58:03.873Z,3.38
2022-08-12T13:00:32.029Z,3.67
2022-08-12T13:02:58.362Z,1.95
2022-08-12T13:05:28.064Z,3.88
2022-08-12T13:08:00.635Z,4.95
2022-08-12T13:10:30.697Z,2.65
2022-08-12T13:14:07.731Z,4.43
2022-08-12T13:15:50.910Z,4.45
2022-08-12T13:18:17.378Z,4.95
2022-08-12T13:20:44.574Z,3.67
2022-08-12T13:23:37.328Z,4.75
2022-08-12T13:25:57.743Z,3.10
2022-08-12T13:28:28.420Z,3.97
2022-08-12T13:30:55.228Z,4.63
2022-08-12T13:33:21.540Z,3.00
2022-08-12T13:36:06.983Z,2.58
2022-08-12T13:38:35.541Z,4.63
2022-08-12T13:41:02.357Z,9.35
2022-08-12T13:43:40.881Z,3.85
2022-08-12T13:46:08.218Z,2.90
2022-08-12T13:48:38.966Z,2.42
2022-08-12T13:51:11.158Z,3.28
2022-08-12T13:53:55.051Z,14.77
2022-08-12T13:56:24.134Z,1.92
2022-08-12T13:58:52.540Z,6.57
2022-08-12T14:03:51.329Z,2.80
2022-08-12T14:06:18.870Z,3.65
2022-08-12T14:08:49.973Z,3.28
2022-08-12T14:11:17.139Z,2.63
2022-08-12T14:14:06.169Z,3.15
2022-08-12T14:16:37.693Z,4.00
2022-08-12T14:19:22.164Z,3.42
2022-08-12T14:22:01.449Z,5.15
2022-08-12T14:24:31.476Z,6.97
2022-08-12T14:26:58.830Z,3.70
2022-08-12T14:30:01.968Z,2.38
2022-08-12T14:32:17.375Z,3.42
2022-08-12T14:34:48.001Z,2.15
2022-08-12T14:37:57.017Z,4.63
2022-08-12T14:40:01.301Z,2.33
2022-08-12T14:42:27.990Z,3.28
2022-08-12T14:44:58.277Z,2.47
2022-08-12T14:47:29.300Z,2.85
2022-08-12T14:50:57.481Z,2.03
2022-08-12T14:55:36.237Z,2.15
2022-08-12T14:58:21.706Z,3.30
2022-08-12T15:00:52.124Z,2.70
2022-08-12T15:03:20.596Z,2.85
2022-08-12T15:06:05.496Z,2.13
2022-08-12T15:08:34.039Z,1.88
2022-08-12T15:11:00.987Z,5.13
2022-08-12T15:13:29.198Z,3.63
2022-08-12T15:15:55.614Z,4.53
2022-08-12T15:18:23.682Z,9.18
2022-08-12T15:20:52.279Z,2.42
2022-08-12T15:23:21.724Z,5.00
2022-08-12T15:25:48.858Z,6.13
2022-08-12T15:28:21.493Z,3.45
2022-08-12T15:30:49.062Z,6.03
2022-08-12T15:33:18.811Z,3.05
2022-08-12T15:35:52.026Z,3.00
2022-08-12T15:38:21.411Z,5.05
2022-08-12T15:40:48.734Z,4.82
2022-08-12T15:43:35.427Z,2.38
2022-08-12T15:46:02.014Z,4.40
2022-08-12T15:48:30.401Z,3.45
2022-08-12T15:53:24.529Z,11.50
2022-08-12T15:55:53.567Z,6.82
2022-08-12T15:58:27.116Z,3.13
2022-08-12T16:00:53.561Z,4.57
2022-08-12T16:03:25.762Z,3.22
2022-08-12T16:06:13.159Z,4.55
2022-08-12T16:08:40.256Z,2.72
2022-08-12T16:11:15.433Z,2.80
2022-08-12T16:13:45.032Z,4.65
2022-08-12T16:16:22.395Z,2.17
2022-08-12T16:18:51.424Z,2.33
2022-08-12T16:21:51.531Z,3.30
2022-08-12T16:24:06.208Z,2.33
2022-08-12T16:26:34.084Z,3.00
2022-08-12T16:29:15.504Z,5.60
2022-08-12T16:31:42.612Z,4.72
2022-08-12T16:34:10.662Z,3.83
2022-08-12T16:36:37.283Z,2.50
2022-08-12T16:39:06.909Z,9.43
2022-08-12T16:41:39.522Z,3.78
2022-08-12T16:44:06.724Z,5.32
2022-08-12T16:46:34.767Z,5.65
2022-08-12T16:49:08.640Z,3.75
2022-08-12T16:51:41.778Z,2.17
2022-08-12T16:54:12.668Z,4.18
2022-08-12T16:56:54.587Z,1.85
2022-08-12T16:59:23.976Z,2.38
2022-08-12T17:01:50.608Z,2.25
2022-08-12T17:04:18.494Z,6.40
2022-08-12T17:06:45.655Z,2.90
2022-08-12T17:09:16.963Z,3.63
2022-08-12T17:11:44.457Z,2.65
2022-08-12T17:14:10.787Z,1.98
2022-08-12T17:16:38.091Z,2.80
2022-08-12T17:19:09.542Z,2.22
2022-08-12T17:21:40.938Z,3.28
2022-08-12T17:24:21.459Z,9.30
2022-08-12T17:26:49.830Z,2.38
2022-08-12T17:29:16.738Z,7.25
2022-08-12T17:32:01.101Z,4.22
2022-08-12T17:34:28.406Z,4.75
2022-08-12T17:36:54.796Z,3.30
2022-08-12T17:39:25.611Z,2.95
2022-08-12T17:42:34.434Z,2.97
2022-08-12T17:44:58.304Z,5.10
2022-08-12T17:48:01.057Z,3.30
2022-08-12T17:50:12.815Z,1.88
2022-08-12T17:52:39.383Z,5.13
2022-08-12T17:55:40.935Z,4.63
2022-08-12T17:57:55.420Z,10.90
2022-08-12T18:00:21.795Z,1.67
2022-08-12T18:02:49.008Z,2.15
2022-08-12T18:07:44.190Z,1.52
2022-08-12T18:10:15.331Z,2.97
2022-08-12T18:12:42.774Z,3.22
2022-08-12T18:15:26.671Z,3.40
2022-08-12T18:18:02.275Z,3.92
2022-08-12T18:20:30.962Z,3.70
2022-08-12T18:23:01.643Z,2.83
2022-08-12T18:26:14.364Z,4.10
2022-08-12T18:28:19.322Z,4.77
2022-08-12T18:30:56.684Z,2.10
2022-08-12T18:33:26.919Z,2.70
2022-08-12T18:35:55.705Z,4.75
2022-08-12T18:38:25.656Z,2.13
2022-08-12T18:43:19.830Z,1.63
2022-08-12T18:45:57.294Z,3.55
2022-08-12T18:48:24.147Z,3.40
2022-08-12T18:51:03.520Z,2.65
2022-08-12T18:54:07.374Z,2.38
2022-08-12T18:56:33.188Z,2.17
2022-08-12T18:59:02.673Z,4.00
2022-08-12T19:02:20.673Z,2.08
2022-08-12T19:04:15.890Z,4.93
2022-08-12T19:06:46.533Z,4.88
2022-08-12T19:09:13.992Z,4.70
2022-08-12T19:11:41.123Z,5.72
2022-08-12T19:14:14.712Z,5.38
2022-08-12T19:16:41.267Z,6.03
2022-08-12T19:19:09.144Z,7.40
2022-08-12T19:21:37.231Z,7.30
2022-08-12T19:24:05.033Z,8.07
2022-08-12T19:26:32.116Z,9.32
2022-08-12T19:29:00.935Z,11.35
2022-08-12T19:31:55.650Z,14.30
2022-08-12T19:37:02.900Z,14.85
2022-08-12T19:39:30.062Z,16.55
2022-08-12T19:42:01.304Z,16.98
2022-08-12T19:44:28.911Z,20.27
2022-08-12T19:46:57.780Z,19.77
2022-08-12T19:49:26.548Z,24.75
2022-08-12T19:51:53.008Z,24.25
2022-08-12T19:54:20.236Z,26.15
2022-08-12T19:56:47.404Z,27.53
2022-08-12T19:59:18.792Z,29.42
2022-08-12T20:02:01.442Z,27.27
2022-08-12T20:04:31.312Z,24.23
2022-08-12T20:06:57.815Z,31.10
2022-08-12T20:09:24.260Z,29.05
2022-08-12T20:12:14.049Z,32.55
2022-08-12T20:14:37.364Z,30.90
2022-08-12T20:17:03.768Z,29.13
2022-08-12T20:20:05.704Z,31.63
2022-08-12T20:22:23.979Z,30.65
2022-08-12T20:24:55.105Z,33.10
2022-08-12T20:27:53.694Z,30.98
2022-08-12T20:30:10.232Z,30.50
2022-08-12T20:32:37.630Z,32.47
2022-08-12T20:35:19.732Z,31.88
2022-08-12T20:38:06.290Z,30.33
2022-08-12T20:40:38.051Z,27.45
2022-08-12T20:43:04.769Z,32.50
2022-08-12T20:45:44.825Z,31.13
2022-08-12T20:48:17.719Z,32.25
2022-08-12T20:50:53.626Z,31.90
2022-08-12T20:53:33.230Z,31.15
2022-08-12T20:56:19.554Z,28.25
2022-08-12T20:58:46.258Z,27.42
2022-08-12T21:01:18.516Z,28.15
2022-08-12T21:03:52.655Z,28.42
2022-08-12T21:06:25.824Z,29.23
2022-08-12T21:08:53.085Z,26.10
2022-08-12T21:11:19.565Z,25.02
2022-08-12T21:13:45.994Z,26.73
2022-08-12T21:16:13.021Z,26.70
2022-08-12T21:18:39.368Z,27.30
2022-08-12T21:21:05.787Z,23.00
2022-08-12T21:23:38.482Z,23.17
2022-08-12T21:26:09.653Z,22.20
2022-08-12T21:28:42.994Z,22.00
2022-08-12T21:32:39.349Z,21.55
2022-08-12T21:34:11.642Z,19.75
2022-08-12T21:36:40.293Z,19.77
2022-08-12T21:39:20.401Z,17.77
2022-08-12T21:41:50.264Z,20.02
2022-08-12T21:44:32.470Z,21.55
2022-08-12T21:47:06.054Z,19.92
2022-08-12T21:49:55.071Z,16.73
2022-08-12T21:52:23.194Z,19.63
2022-08-12T21:55:19.502Z,17.08
2022-08-12T21:57:50.565Z,19.48
2022-08-12T22:00:20.722Z,15.70
2022-08-12T22:02:48.547Z,18.85
2022-08-12T22:05:15.058Z,15.93
2022-08-12T22:07:46.005Z,17.20
2022-08-12T22:10:28.438Z,17.58
2022-08-12T22:12:56.023Z,14.90
2022-08-12T22:15:23.189Z,18.23
2022-08-12T22:17:55.533Z,16.13
2022-08-12T22:20:23.226Z,16.38
2022-08-12T22:22:56.971Z,14.10
2022-08-12T22:25:26.743Z,17.33
2022-08-12T22:27:53.244Z,16.85
2022-08-12T22:30:21.130Z,14.00
2022-08-12T22:32:49.999Z,15.95
2022-08-12T22:35:23.257Z,14.13
2022-08-12T22:37:50.639Z,14.40
2022-08-12T22:40:20.163Z,14.15
2022-08-12T22:42:51.375Z,12.98
2022-08-12T22:45:18.083Z,15.13
2022-08-12T22:47:54.755Z,13.45
2022-08-12T22:50:26.984Z,13.55
2022-08-12T22:52:54.408Z,14.77
2022-08-12T22:55:59.207Z,17.77
2022-08-12T22:58:08.841Z,16.75
2022-08-12T23:00:39.029Z,13.80
2022-08-12T23:03:05.495Z,15.00
2022-08-12T23:05:37.042Z,12.90
2022-08-12T23:08:20.900Z,12.55
2022-08-12T23:10:47.315Z,10.05
2022-08-12T23:13:16.004Z,12.68
2022-08-12T23:15:47.604Z,10.07
2022-08-12T23:18:20.971Z,11.07
2022-08-12T23:20:50.021Z,12.13
2022-08-12T23:23:16.689Z,10.75
2022-08-12T23:25:54.621Z,12.23
2022-08-12T23:28:29.986Z,10.63
2022-08-12T23:30:57.477Z,11.30
2022-08-12T23:34:01.557Z,10.25
2022-08-12T23:36:12.678Z,9.98
2022-08-12T23:38:43.954Z,12.65
2022-08-12T23:41:12.292Z,9.63
2022-08-12T23:43:44.278Z,8.40
2022-08-12T23:46:18.645Z,8.75
2022-08-12T23:48:47.920Z,9.57
2022-08-12T23:51:22.027Z,7.90
2022-08-12T23:53:50.526Z,9.18
2022-08-12T23:56:16.901Z,8.27
2022-08-12T23:58:45.481Z,5.72
